createdAt,value
2023-03-26T00:00:04.326Z,6.81
2023-03-26T00:01:04.308Z,6.88
2023-03-26T00:02:04.259Z,6.88
2023-03-26T00:03:04.252Z,6.88
2023-03-26T00:04:04.230Z,6.94
2023-03-26T00:05:04.154Z,6.94
2023-03-26T00:06:04.274Z,6.94
2023-03-26T00:07:04.241Z,6.94
2023-03-26T00:08:04.307Z,7.00
2023-03-26T00:09:04.139Z,7.00
2023-03-26T00:10:04.068Z,7.00
2023-03-26T00:11:04.155Z,7.00
2023-03-26T00:12:04.066Z,7.06
2023-03-26T00:13:04.015Z,7.00
2023-03-26T00:14:04.948Z,7.06
2023-03-26T00:15:04.074Z,7.06
2023-03-26T00:16:04.187Z,7.06
2023-03-26T00:17:04.142Z,7.06
2023-03-26T00:18:04.154Z,7.06
2023-03-26T00:19:04.233Z,7.12
2023-03-26T00:20:04.227Z,7.12
2023-03-26T00:21:04.222Z,7.19
2023-03-26T00:22:04.218Z,7.19
2023-03-26T00:23:03.509Z,7.19
2023-03-26T00:24:03.587Z,7.19
2023-03-26T00:25:03.519Z,7.19
2023-03-26T00:26:04.470Z,7.19
2023-03-26T00:27:04.400Z,7.19
2023-03-26T00:28:04.322Z,7.19
2023-03-26T00:29:04.397Z,7.19
2023-03-26T00:30:04.335Z,7.19
2023-03-26T00:31:04.324Z,7.19
2023-03-26T00:32:04.312Z,7.19
2023-03-26T00:33:04.214Z,7.19
2023-03-26T00:34:04.195Z,7.19
2023-03-26T00:35:04.154Z,7.19
2023-03-26T00:36:04.528Z,7.19
2023-03-26T00:37:04.159Z,7.19
2023-03-26T00:38:04.241Z,7.19
2023-03-26T00:39:04.154Z,7.19
2023-03-26T00:40:04.060Z,7.19
2023-03-26T00:41:04.060Z,7.25
2023-03-26T00:42:04.070Z,7.25
2023-03-26T00:43:03.987Z,7.25
2023-03-26T00:44:04.064Z,7.25
2023-03-26T00:45:04.148Z,7.25
2023-03-26T00:46:04.245Z,7.25
2023-03-26T00:47:04.152Z,7.25
2023-03-26T00:48:04.255Z,7.25
2023-03-26T00:49:04.342Z,7.25
2023-03-26T00:50:04.393Z,7.25
2023-03-26T00:51:04.385Z,7.25
2023-03-26T00:52:04.470Z,7.25
2023-03-26T00:53:04.475Z,7.25
2023-03-26T00:54:04.469Z,7.25
2023-03-26T00:55:03.516Z,7.25
2023-03-26T00:56:04.473Z,7.25
2023-03-26T00:57:04.531Z,7.25
2023-03-26T00:58:04.384Z,7.25
2023-03-26T00:59:04.319Z,7.25
2023-03-26T01:00:04.479Z,7.25
2023-03-26T01:01:03.640Z,7.25
2023-03-26T01:02:03.628Z,7.25
2023-03-26T01:03:03.600Z,7.25
2023-03-26T01:04:08.997Z,7.31
2023-03-26T01:05:04.502Z,7.31
2023-03-26T01:06:03.508Z,7.31
2023-03-26T01:07:04.483Z,7.25
2023-03-26T01:08:04.400Z,7.25
2023-03-26T01:09:04.395Z,7.25
2023-03-26T01:10:04.468Z,7.25
2023-03-26T01:11:04.482Z,7.31
2023-03-26T01:12:04.393Z,7.31
2023-03-26T01:13:04.308Z,7.25
2023-03-26T01:14:04.225Z,7.31
2023-03-26T01:15:04.310Z,7.31
2023-03-26T01:16:04.264Z,7.31
2023-03-26T01:17:04.274Z,7.31
2023-03-26T01:18:04.286Z,7.31
2023-03-26T01:19:04.153Z,7.31
2023-03-26T01:20:04.142Z,7.31
2023-03-26T01:21:04.154Z,7.31
2023-03-26T01:22:04.075Z,7.31
2023-03-26T01:23:03.985Z,7.31
2023-03-26T01:24:04.072Z,7.31
2023-03-26T01:25:04.165Z,7.31
2023-03-26T01:26:04.070Z,7.31
2023-03-26T01:27:04.237Z,7.31
2023-03-26T01:28:04.170Z,7.31
2023-03-26T01:29:04.233Z,7.31
2023-03-26T01:30:04.146Z,7.31
2023-03-26T01:31:04.232Z,7.31
2023-03-26T01:32:04.162Z,7.38
2023-03-26T01:33:04.281Z,7.38
2023-03-26T01:34:04.149Z,7.38
2023-03-26T01:35:04.227Z,7.38
2023-03-26T01:36:04.406Z,7.38
2023-03-26T01:37:04.317Z,7.38
2023-03-26T01:38:04.226Z,7.38
2023-03-26T01:39:04.175Z,7.38
2023-03-26T01:40:04.252Z,7.38
2023-03-26T01:41:04.237Z,7.38
2023-03-26T01:42:04.228Z,7.38
2023-03-26T01:43:04.257Z,7.38
2023-03-26T01:44:04.280Z,7.38
2023-03-26T01:45:04.156Z,7.38
2023-03-26T01:46:04.316Z,7.38
2023-03-26T01:47:04.314Z,7.44
2023-03-26T01:48:04.272Z,7.44
2023-03-26T01:49:04.389Z,7.44
2023-03-26T01:50:04.330Z,7.44
2023-03-26T01:51:04.334Z,7.44
2023-03-26T01:52:04.228Z,7.38
2023-03-26T01:53:04.230Z,7.44
2023-03-26T01:54:04.304Z,7.44
2023-03-26T01:55:04.320Z,7.44
2023-03-26T01:56:04.316Z,7.44
2023-03-26T01:57:04.500Z,7.44
2023-03-26T01:58:04.303Z,7.44
2023-03-26T01:59:04.389Z,7.44
2023-03-26T02:00:04.318Z,7.44
2023-03-26T02:01:04.251Z,7.44
2023-03-26T02:02:04.349Z,7.44
2023-03-26T02:03:04.271Z,7.44
2023-03-26T02:04:04.181Z,7.44
2023-03-26T02:05:04.069Z,7.44
2023-03-26T02:06:03.990Z,7.50
2023-03-26T02:07:04.066Z,7.44
2023-03-26T02:08:04.155Z,7.44
2023-03-26T02:09:04.068Z,7.44
2023-03-26T02:10:03.916Z,7.44
2023-03-26T02:11:03.829Z,7.44
2023-03-26T02:12:03.839Z,7.44
2023-03-26T02:13:03.915Z,7.44
2023-03-26T02:14:03.850Z,7.44
2023-03-26T02:15:03.914Z,7.44
2023-03-26T02:16:03.906Z,7.44
2023-03-26T02:17:03.906Z,7.44
2023-03-26T02:18:03.950Z,7.44
2023-03-26T02:19:03.905Z,7.38
2023-03-26T02:20:04.008Z,7.38
2023-03-26T02:21:04.020Z,7.38
2023-03-26T02:22:03.988Z,7.38
2023-03-26T02:23:03.933Z,7.38
2023-03-26T02:24:04.250Z,7.38
2023-03-26T02:25:03.824Z,7.38
2023-03-26T02:26:03.833Z,7.38
2023-03-26T02:27:03.824Z,7.38
2023-03-26T02:28:03.739Z,7.44
2023-03-26T02:29:03.671Z,7.38
2023-03-26T02:30:03.679Z,7.44
2023-03-26T02:31:03.749Z,7.44
2023-03-26T02:32:03.711Z,7.44
2023-03-26T02:33:03.845Z,7.44
2023-03-26T02:34:03.825Z,7.50
2023-03-26T02:35:03.746Z,7.44
2023-03-26T02:36:03.899Z,7.50
2023-03-26T02:37:03.740Z,7.50
2023-03-26T02:38:03.738Z,7.50
2023-03-26T02:39:03.752Z,7.50
2023-03-26T02:40:03.771Z,7.50
2023-03-26T02:41:03.758Z,7.50
2023-03-26T02:42:03.749Z,7.50
2023-03-26T02:43:03.666Z,7.50
2023-03-26T02:44:03.596Z,7.50
2023-03-26T02:45:03.670Z,7.50
2023-03-26T02:46:03.676Z,7.50
2023-03-26T02:47:03.601Z,7.56
2023-03-26T02:48:03.638Z,7.56
2023-03-26T02:49:03.540Z,7.56
2023-03-26T02:50:03.502Z,7.56
2023-03-26T02:51:03.644Z,7.56
2023-03-26T02:52:03.666Z,7.56
2023-03-26T02:53:03.539Z,7.56
2023-03-26T02:54:04.492Z,7.56
2023-03-26T02:55:04.527Z,7.62
2023-03-26T02:56:04.467Z,7.62
2023-03-26T02:57:04.512Z,7.62
2023-03-26T02:58:04.390Z,7.56
2023-03-26T02:59:04.388Z,7.56
2023-03-26T03:00:04.302Z,7.62
2023-03-26T03:01:04.299Z,7.62
2023-03-26T03:02:04.291Z,7.62
2023-03-26T03:03:04.332Z,7.62
2023-03-26T03:04:04.267Z,7.62
2023-03-26T03:05:04.058Z,7.62
2023-03-26T03:06:04.143Z,7.62
2023-03-26T03:07:04.269Z,7.62
2023-03-26T03:08:04.270Z,7.62
2023-03-26T03:09:04.306Z,7.62
2023-03-26T03:10:04.308Z,7.62
2023-03-26T03:11:04.236Z,7.62
2023-03-26T03:12:04.316Z,7.62
2023-03-26T03:13:04.304Z,7.69
2023-03-26T03:14:04.476Z,7.69
2023-03-26T03:15:04.336Z,7.69
2023-03-26T03:16:04.395Z,7.69
2023-03-26T03:17:03.557Z,7.69
2023-03-26T03:18:03.632Z,7.69
2023-03-26T03:19:03.520Z,7.69
2023-03-26T03:20:03.505Z,7.69
2023-03-26T03:21:04.479Z,7.69
2023-03-26T03:22:03.512Z,7.69
2023-03-26T03:23:04.460Z,7.69
2023-03-26T03:24:04.400Z,7.69
2023-03-26T03:25:04.305Z,7.75
2023-03-26T03:26:04.303Z,7.75
2023-03-26T03:27:04.305Z,7.75
2023-03-26T03:28:04.238Z,7.75
2023-03-26T03:29:04.391Z,7.75
2023-03-26T03:30:04.336Z,7.75
2023-03-26T03:31:04.284Z,7.75
2023-03-26T03:32:04.156Z,7.75
2023-03-26T03:33:05.131Z,7.81
2023-03-26T03:34:04.191Z,7.75
2023-03-26T03:35:04.147Z,7.75
2023-03-26T03:36:04.241Z,7.75
2023-03-26T03:37:04.214Z,7.75
2023-03-26T03:38:04.232Z,7.75
2023-03-26T03:39:04.311Z,7.75
2023-03-26T03:40:04.238Z,7.75
2023-03-26T03:41:04.236Z,7.75
2023-03-26T03:42:04.239Z,7.75
2023-03-26T03:43:04.181Z,7.75
2023-03-26T03:44:04.141Z,7.81
2023-03-26T03:45:03.999Z,7.75
2023-03-26T03:46:03.972Z,7.75
2023-03-26T03:47:03.910Z,7.75
2023-03-26T03:48:03.966Z,7.75
2023-03-26T03:49:03.822Z,7.81
2023-03-26T03:50:03.911Z,7.75
2023-03-26T03:51:03.986Z,7.81
2023-03-26T03:52:03.825Z,7.81
2023-03-26T03:53:03.758Z,7.81
2023-03-26T03:54:03.939Z,7.81
2023-03-26T03:55:03.842Z,7.81
2023-03-26T03:56:03.926Z,7.81
2023-03-26T03:57:03.999Z,7.81
2023-03-26T03:58:03.901Z,7.81
2023-03-26T03:59:03.906Z,7.81
2023-03-26T04:00:05.715Z,7.81
2023-03-26T04:01:03.771Z,7.81
2023-03-26T04:02:03.768Z,7.81
2023-03-26T04:03:03.909Z,7.81
2023-03-26T04:04:03.987Z,7.81
2023-03-26T04:05:03.948Z,7.81
2023-03-26T04:06:03.912Z,7.81
2023-03-26T04:07:03.989Z,7.81
2023-03-26T04:08:03.917Z,7.81
2023-03-26T04:09:03.820Z,7.81
2023-03-26T04:10:03.913Z,7.81
2023-03-26T04:11:03.904Z,7.81
2023-03-26T04:12:03.989Z,7.81
2023-03-26T04:13:04.007Z,7.81
2023-03-26T04:14:03.996Z,7.81
2023-03-26T04:15:04.000Z,7.81
2023-03-26T04:16:04.090Z,7.81
2023-03-26T04:17:04.066Z,7.81
2023-03-26T04:18:04.039Z,7.81
2023-03-26T04:19:04.118Z,7.81
2023-03-26T04:20:04.072Z,7.81
2023-03-26T04:21:04.094Z,7.81
2023-03-26T04:22:04.062Z,7.81
2023-03-26T04:23:04.157Z,7.81
2023-03-26T04:24:03.991Z,7.81
2023-03-26T04:25:04.337Z,7.81
2023-03-26T04:26:04.398Z,7.81
2023-03-26T04:27:04.415Z,7.81
2023-03-26T04:28:04.305Z,7.81
2023-03-26T04:29:04.314Z,7.81
2023-03-26T04:30:04.317Z,7.81
2023-03-26T04:31:04.443Z,7.81
2023-03-26T04:32:04.381Z,7.81
2023-03-26T04:33:03.541Z,7.81
2023-03-26T04:34:04.473Z,7.81
2023-03-26T04:35:04.414Z,7.81
2023-03-26T04:36:04.461Z,7.81
2023-03-26T04:37:04.481Z,7.81
2023-03-26T04:38:04.470Z,7.81
2023-03-26T04:39:04.479Z,7.81
2023-03-26T04:40:04.408Z,7.81
2023-03-26T04:41:04.651Z,7.81
2023-03-26T04:42:04.303Z,7.75
2023-03-26T04:43:04.387Z,7.81
2023-03-26T04:44:04.393Z,7.81
2023-03-26T04:45:03.514Z,7.75
2023-03-26T04:46:04.496Z,7.81
2023-03-26T04:47:04.736Z,7.81
2023-03-26T04:48:03.519Z,7.81
2023-03-26T04:49:04.388Z,7.81
2023-03-26T04:50:03.618Z,7.81
2023-03-26T04:51:03.518Z,7.81
2023-03-26T04:52:04.384Z,7.81
2023-03-26T04:53:04.384Z,7.81
2023-03-26T04:54:04.384Z,7.81
2023-03-26T04:55:04.306Z,7.81
2023-03-26T04:56:04.469Z,7.81
2023-03-26T04:57:03.560Z,7.81
2023-03-26T04:58:04.403Z,7.81
2023-03-26T04:59:03.503Z,7.81
2023-03-26T05:00:03.517Z,7.81
2023-03-26T05:01:09.749Z,7.81
2023-03-26T05:02:04.411Z,7.81
2023-03-26T05:03:04.344Z,7.81
2023-03-26T05:04:04.357Z,7.94
2023-03-26T05:05:04.304Z,8.25
2023-03-26T05:06:04.460Z,8.25
2023-03-26T05:07:04.362Z,8.50
2023-03-26T05:08:04.414Z,8.62
2023-03-26T05:09:04.468Z,8.62
2023-03-26T05:10:03.576Z,8.62
2023-03-26T05:11:04.469Z,8.62
2023-03-26T05:12:04.477Z,8.50
2023-03-26T05:13:03.514Z,8.44
2023-03-26T05:14:03.593Z,8.38
2023-03-26T05:15:03.502Z,8.31
2023-03-26T05:16:04.408Z,8.25
2023-03-26T05:17:04.472Z,8.25
2023-03-26T05:18:04.530Z,8.19
2023-03-26T05:19:04.309Z,8.19
2023-03-26T05:20:04.323Z,8.12
2023-03-26T05:21:04.225Z,8.06
2023-03-26T05:22:04.315Z,8.06
2023-03-26T05:23:04.396Z,8.06
2023-03-26T05:24:04.399Z,8.06
2023-03-26T05:25:04.396Z,8.00
2023-03-26T05:26:04.230Z,8.00
2023-03-26T05:27:04.229Z,8.00
2023-03-26T05:28:03.661Z,8.00
2023-03-26T05:29:03.678Z,8.00
2023-03-26T05:30:03.774Z,8.19
2023-03-26T05:31:03.663Z,8.44
2023-03-26T05:32:03.508Z,8.56
2023-03-26T05:33:04.545Z,8.50
2023-03-26T05:34:04.477Z,8.56
2023-03-26T05:35:03.525Z,8.69
2023-03-26T05:36:03.577Z,8.94
2023-03-26T05:37:04.469Z,9.12
2023-03-26T05:38:04.387Z,9.31
2023-03-26T05:39:03.536Z,9.44
2023-03-26T05:40:04.472Z,9.62
2023-03-26T05:41:04.562Z,9.75
2023-03-26T05:42:04.467Z,9.88
2023-03-26T05:43:03.510Z,9.88
2023-03-26T05:44:03.602Z,9.81
2023-03-26T05:45:03.674Z,9.69
2023-03-26T05:46:03.746Z,9.62
2023-03-26T05:47:03.509Z,9.44
2023-03-26T05:48:04.489Z,9.44
2023-03-26T05:49:03.512Z,9.62
2023-03-26T05:50:03.511Z,9.62
2023-03-26T05:51:03.607Z,9.44
2023-03-26T05:52:03.506Z,9.38
2023-03-26T05:53:03.995Z,9.62
2023-03-26T05:54:04.086Z,9.81
2023-03-26T05:55:03.958Z,9.81
2023-03-26T05:56:03.934Z,9.69
2023-03-26T05:57:04.266Z,9.56
2023-03-26T05:58:04.229Z,9.44
2023-03-26T05:59:03.768Z,9.44
2023-03-26T06:00:03.835Z,9.62
2023-03-26T06:01:03.759Z,9.56
2023-03-26T06:02:03.926Z,9.38
2023-03-26T06:03:03.920Z,9.31
2023-03-26T06:04:03.980Z,9.31
2023-03-26T06:05:03.916Z,9.19
2023-03-26T06:06:03.912Z,9.12
2023-03-26T06:07:03.949Z,9.06
2023-03-26T06:08:03.838Z,9.00
2023-03-26T06:09:03.787Z,9.00
2023-03-26T06:10:03.829Z,8.94
2023-03-26T06:11:03.757Z,8.94
2023-03-26T06:12:03.837Z,8.88
2023-03-26T06:13:03.826Z,8.88
2023-03-26T06:14:03.759Z,8.81
2023-03-26T06:15:03.839Z,8.81
2023-03-26T06:16:03.767Z,8.81
2023-03-26T06:17:03.748Z,8.94
2023-03-26T06:18:03.810Z,9.12
2023-03-26T06:19:03.862Z,9.31
2023-03-26T06:20:03.748Z,9.56
2023-03-26T06:21:03.767Z,9.81
2023-03-26T06:22:03.756Z,10.12
2023-03-26T06:23:03.677Z,9.94
2023-03-26T06:24:03.747Z,10.00
2023-03-26T06:25:03.676Z,10.06
2023-03-26T06:26:03.753Z,10.00
2023-03-26T06:27:03.670Z,9.88
2023-03-26T06:28:03.582Z,9.75
2023-03-26T06:29:03.590Z,9.62
2023-03-26T06:30:04.547Z,9.50
2023-03-26T06:31:03.614Z,9.44
2023-03-26T06:32:16.607Z,9.38
2023-03-26T06:33:03.711Z,9.31
2023-03-26T06:34:03.664Z,9.25
2023-03-26T06:35:03.671Z,9.19
2023-03-26T06:36:03.696Z,9.12
2023-03-26T06:37:03.585Z,9.12
2023-03-26T06:38:03.591Z,9.06
2023-03-26T06:39:07.493Z,9.06
2023-03-26T06:40:03.591Z,9.06
2023-03-26T06:41:03.691Z,9.00
2023-03-26T06:42:03.528Z,9.00
2023-03-26T06:43:07.307Z,9.00
2023-03-26T06:44:03.518Z,9.00
2023-03-26T06:45:03.525Z,9.00
2023-03-26T06:46:03.556Z,9.25
2023-03-26T06:47:03.689Z,9.44
2023-03-26T06:48:03.653Z,9.62
2023-03-26T06:49:04.474Z,9.75
2023-03-26T06:50:03.587Z,9.94
2023-03-26T06:51:03.588Z,9.75
2023-03-26T06:52:03.621Z,9.62
2023-03-26T06:53:03.508Z,9.75
2023-03-26T06:54:04.566Z,9.94
2023-03-26T06:55:03.753Z,10.25
2023-03-26T06:56:03.747Z,10.56
2023-03-26T06:57:03.946Z,10.69
2023-03-26T06:58:03.908Z,10.88
2023-03-26T06:59:03.914Z,11.00
2023-03-26T07:00:03.905Z,11.12
2023-03-26T07:01:04.034Z,11.31
2023-03-26T07:02:03.993Z,11.25
2023-03-26T07:03:04.081Z,11.19
2023-03-26T07:04:04.057Z,11.19
2023-03-26T07:05:03.909Z,11.25
2023-03-26T07:06:03.996Z,11.38
2023-03-26T07:07:04.078Z,11.12
2023-03-26T07:08:03.985Z,11.12
2023-03-26T07:09:03.994Z,10.94
2023-03-26T07:10:04.067Z,10.75
2023-03-26T07:11:04.154Z,10.62
2023-03-26T07:12:04.166Z,10.50
2023-03-26T07:13:04.248Z,10.38
2023-03-26T07:14:04.153Z,10.25
2023-03-26T07:15:04.249Z,10.19
2023-03-26T07:16:04.268Z,10.06
2023-03-26T07:17:04.319Z,10.00
2023-03-26T07:18:04.495Z,9.94
2023-03-26T07:19:04.475Z,9.94
2023-03-26T07:20:04.409Z,9.88
2023-03-26T07:21:04.245Z,9.81
2023-03-26T07:22:04.399Z,9.81
2023-03-26T07:23:04.321Z,9.81
2023-03-26T07:24:04.394Z,9.75
2023-03-26T07:25:04.416Z,9.81
2023-03-26T07:26:04.230Z,9.94
2023-03-26T07:27:04.399Z,10.06
2023-03-26T07:28:04.409Z,10.38
2023-03-26T07:29:04.672Z,10.44
2023-03-26T07:30:03.837Z,10.69
2023-03-26T07:31:03.930Z,10.94
2023-03-26T07:32:04.028Z,11.06
2023-03-26T07:33:04.007Z,11.19
2023-03-26T07:34:04.011Z,11.06
2023-03-26T07:35:03.849Z,10.94
2023-03-26T07:36:03.851Z,10.81
2023-03-26T07:37:03.930Z,10.75
2023-03-26T07:38:03.869Z,10.69
2023-03-26T07:39:03.925Z,10.62
2023-03-26T07:40:03.779Z,10.56
2023-03-26T07:41:03.759Z,10.56
2023-03-26T07:42:03.670Z,10.62
2023-03-26T07:43:03.764Z,10.62
2023-03-26T07:44:03.758Z,10.62
2023-03-26T07:45:03.795Z,10.69
2023-03-26T07:46:03.760Z,10.75
2023-03-26T07:47:03.831Z,10.81
2023-03-26T07:48:03.784Z,10.88
2023-03-26T07:49:03.831Z,10.88
2023-03-26T07:50:03.857Z,10.94
2023-03-26T07:51:03.824Z,10.94
2023-03-26T07:52:03.826Z,11.00
2023-03-26T07:53:04.156Z,11.19
2023-03-26T07:54:03.922Z,11.25
2023-03-26T07:55:03.838Z,11.31
2023-03-26T07:56:04.023Z,11.56
2023-03-26T07:57:04.392Z,11.69
2023-03-26T07:58:03.998Z,12.06
2023-03-26T07:59:03.910Z,12.06
2023-03-26T08:00:03.916Z,12.06
2023-03-26T08:01:03.925Z,12.06
2023-03-26T08:02:03.917Z,12.12
2023-03-26T08:03:04.054Z,12.19
2023-03-26T08:04:23.530Z,12.25
2023-03-26T08:05:03.983Z,12.31
2023-03-26T08:06:03.912Z,12.44
2023-03-26T08:07:03.914Z,12.50
2023-03-26T08:08:03.994Z,12.56
2023-03-26T08:09:04.164Z,12.75
2023-03-26T08:10:04.008Z,12.81
2023-03-26T08:11:04.070Z,12.88
2023-03-26T08:12:04.068Z,12.94
2023-03-26T08:13:04.105Z,13.06
2023-03-26T08:14:03.991Z,13.12
2023-03-26T08:15:04.153Z,13.19
2023-03-26T08:16:04.362Z,13.25
2023-03-26T08:17:04.172Z,13.38
2023-03-26T08:18:04.208Z,13.44
2023-03-26T08:19:04.246Z,13.56
2023-03-26T08:20:04.233Z,13.56
2023-03-26T08:21:04.303Z,13.62
2023-03-26T08:22:04.224Z,13.69
2023-03-26T08:23:04.224Z,13.75
2023-03-26T08:24:04.235Z,13.81
2023-03-26T08:25:04.229Z,13.88
2023-03-26T08:26:04.312Z,13.88
2023-03-26T08:27:04.400Z,13.88
2023-03-26T08:28:04.398Z,13.94
2023-03-26T08:29:04.402Z,14.06
2023-03-26T08:30:04.396Z,14.06
2023-03-26T08:31:04.407Z,14.06
2023-03-26T08:32:04.472Z,14.06
2023-03-26T08:33:04.391Z,14.06
2023-03-26T08:34:04.318Z,14.12
2023-03-26T08:35:04.398Z,14.06
2023-03-26T08:36:04.434Z,14.12
2023-03-26T08:37:04.546Z,14.38
2023-03-26T08:38:03.689Z,14.38
2023-03-26T08:39:03.511Z,14.62
2023-03-26T08:40:03.594Z,14.62
2023-03-26T08:41:03.587Z,14.56
2023-03-26T08:42:03.585Z,14.44
2023-03-26T08:43:03.599Z,14.38
2023-03-26T08:44:03.593Z,14.31
2023-03-26T08:45:03.504Z,14.25
2023-03-26T08:46:04.430Z,14.19
2023-03-26T08:47:03.596Z,14.12
2023-03-26T08:48:03.670Z,14.06
2023-03-26T08:49:03.694Z,14.00
2023-03-26T08:50:03.675Z,14.00
2023-03-26T08:51:03.592Z,13.94
2023-03-26T08:52:03.586Z,13.94
2023-03-26T08:53:03.666Z,13.94
2023-03-26T08:54:03.680Z,13.94
2023-03-26T08:55:03.613Z,13.88
2023-03-26T08:56:03.507Z,13.88
2023-03-26T08:57:03.674Z,13.88
2023-03-26T08:58:03.519Z,13.81
2023-03-26T08:59:04.464Z,13.75
2023-03-26T09:00:04.307Z,13.75
2023-03-26T09:01:03.516Z,13.94
2023-03-26T09:02:03.536Z,13.88
2023-03-26T09:03:03.609Z,14.00
2023-03-26T09:04:04.513Z,13.94
2023-03-26T09:05:04.570Z,13.88
2023-03-26T09:06:03.436Z,13.94
2023-03-26T09:07:03.607Z,13.88
2023-03-26T09:08:03.591Z,13.81
2023-03-26T09:09:03.667Z,13.69
2023-03-26T09:10:03.528Z,13.62
2023-03-26T09:11:03.508Z,13.62
2023-03-26T09:12:03.582Z,13.56
2023-03-26T09:13:03.592Z,13.50
2023-03-26T09:14:03.596Z,13.44
2023-03-26T09:15:03.517Z,13.38
2023-03-26T09:16:03.528Z,13.38
2023-03-26T09:17:03.517Z,13.31
2023-03-26T09:18:04.503Z,13.31
2023-03-26T09:19:04.379Z,13.25
2023-03-26T09:20:04.475Z,13.19
2023-03-26T09:21:04.461Z,13.19
2023-03-26T09:22:04.385Z,13.12
2023-03-26T09:23:04.390Z,13.12
2023-03-26T09:24:04.571Z,13.06
2023-03-26T09:25:04.477Z,13.06
2023-03-26T09:26:04.397Z,13.06
2023-03-26T09:27:04.413Z,13.06
2023-03-26T09:28:04.415Z,13.00
2023-03-26T09:29:04.396Z,13.00
2023-03-26T09:30:04.312Z,13.00
2023-03-26T09:31:04.488Z,13.00
2023-03-26T09:32:04.384Z,13.00
2023-03-26T09:33:04.430Z,13.00
2023-03-26T09:34:04.231Z,13.00
2023-03-26T09:35:04.248Z,13.00
2023-03-26T09:36:04.453Z,13.00
2023-03-26T09:37:04.397Z,13.00
2023-03-26T09:38:04.397Z,13.00
2023-03-26T09:39:04.309Z,13.00
2023-03-26T09:40:04.320Z,13.00
2023-03-26T09:41:04.409Z,13.00
2023-03-26T09:42:04.235Z,13.00
2023-03-26T09:43:04.174Z,13.00
2023-03-26T09:44:04.146Z,13.06
2023-03-26T09:45:04.161Z,13.06
2023-03-26T09:46:04.407Z,13.06
2023-03-26T09:47:04.270Z,13.06
2023-03-26T09:48:04.400Z,13.12
2023-03-26T09:49:04.400Z,13.12
2023-03-26T09:50:03.515Z,13.12
2023-03-26T09:51:03.608Z,13.12
2023-03-26T09:52:03.608Z,13.12
2023-03-26T09:53:03.590Z,13.12
2023-03-26T09:54:03.589Z,13.12
2023-03-26T09:55:03.672Z,13.19
2023-03-26T09:56:03.592Z,13.19
2023-03-26T09:57:03.688Z,13.19
2023-03-26T09:58:04.546Z,13.19
2023-03-26T09:59:04.389Z,13.19
2023-03-26T10:00:04.429Z,13.19
2023-03-26T10:01:03.553Z,13.19
2023-03-26T10:02:03.595Z,13.25
2023-03-26T10:03:03.710Z,13.25
2023-03-26T10:04:03.510Z,13.31
2023-03-26T10:05:04.582Z,13.31
2023-03-26T10:06:04.092Z,13.38
2023-03-26T10:07:04.013Z,13.56
2023-03-26T10:08:04.073Z,13.56
2023-03-26T10:09:04.149Z,13.56
2023-03-26T10:10:04.066Z,13.50
2023-03-26T10:11:04.244Z,13.56
2023-03-26T10:12:04.313Z,13.56
2023-03-26T10:13:13.849Z,13.62
2023-03-26T10:14:04.493Z,13.69
2023-03-26T10:15:04.485Z,14.06
2023-03-26T10:16:03.749Z,14.19
2023-03-26T10:17:03.757Z,14.25
2023-03-26T10:18:03.659Z,14.19
2023-03-26T10:19:03.597Z,14.06
2023-03-26T10:20:04.470Z,14.00
2023-03-26T10:21:03.530Z,13.94
2023-03-26T10:22:04.481Z,13.94
2023-03-26T10:23:04.388Z,13.81
2023-03-26T10:24:04.387Z,13.75
2023-03-26T10:25:04.388Z,13.75
2023-03-26T10:26:04.328Z,13.69
2023-03-26T10:27:09.628Z,13.75
2023-03-26T10:28:03.538Z,14.00
2023-03-26T10:29:03.599Z,14.25
2023-03-26T10:30:03.608Z,14.62
2023-03-26T10:31:03.718Z,14.69
2023-03-26T10:32:03.706Z,14.56
2023-03-26T10:33:03.570Z,14.44
2023-03-26T10:34:03.504Z,14.31
2023-03-26T10:35:03.482Z,14.19
2023-03-26T10:36:03.526Z,14.12
2023-03-26T10:37:03.587Z,14.00
2023-03-26T10:38:03.502Z,13.94
2023-03-26T10:39:04.466Z,13.88
2023-03-26T10:40:03.589Z,13.81
2023-03-26T10:41:03.674Z,13.75
2023-03-26T10:42:03.760Z,13.69
2023-03-26T10:43:03.766Z,13.69
2023-03-26T10:44:08.347Z,13.69
2023-03-26T10:45:04.414Z,13.62
2023-03-26T10:46:03.770Z,13.62
2023-03-26T10:47:03.672Z,13.56
2023-03-26T10:48:03.869Z,13.56
2023-03-26T10:49:03.709Z,13.50
2023-03-26T10:50:03.760Z,13.50
2023-03-26T10:51:03.652Z,13.44
2023-03-26T10:52:03.755Z,13.44
2023-03-26T10:53:03.897Z,13.44
2023-03-26T10:54:03.820Z,13.38
2023-03-26T10:55:03.785Z,13.31
2023-03-26T10:56:03.905Z,13.31
2023-03-26T10:57:03.910Z,13.31
2023-03-26T10:58:03.981Z,13.31
2023-03-26T10:59:04.232Z,13.25
2023-03-26T11:00:04.236Z,13.25
2023-03-26T11:01:05.996Z,13.19
2023-03-26T11:02:04.237Z,13.19
2023-03-26T11:03:04.215Z,13.12
2023-03-26T11:04:04.327Z,13.12
2023-03-26T11:05:04.246Z,13.06
2023-03-26T11:06:04.326Z,13.06
2023-03-26T11:07:05.087Z,13.06
2023-03-26T11:08:04.259Z,13.06
2023-03-26T11:09:04.342Z,13.00
2023-03-26T11:10:04.415Z,13.00
2023-03-26T11:11:04.558Z,13.00
2023-03-26T11:12:03.528Z,13.00
2023-03-26T11:13:04.871Z,13.00
2023-03-26T11:14:03.608Z,13.00
2023-03-26T11:15:03.675Z,12.94
2023-03-26T11:16:03.829Z,12.94
2023-03-26T11:17:03.766Z,12.94
2023-03-26T11:18:03.786Z,12.88
2023-03-26T11:19:05.574Z,12.88
2023-03-26T11:20:03.766Z,12.81
2023-03-26T11:21:18.380Z,12.81
2023-03-26T11:22:03.832Z,12.81
2023-03-26T11:23:03.510Z,12.75
2023-03-26T11:24:04.977Z,12.75
2023-03-26T11:25:05.543Z,12.75
2023-03-26T11:26:03.670Z,12.69
2023-03-26T11:27:14.711Z,12.69
2023-03-26T11:28:03.753Z,12.62
2023-03-26T11:29:05.475Z,12.56
2023-03-26T11:30:03.860Z,12.56
2023-03-26T11:31:03.898Z,12.56
2023-03-26T11:32:03.751Z,12.56
2023-03-26T11:33:03.794Z,12.56
2023-03-26T11:34:03.831Z,12.50
2023-03-26T11:35:03.859Z,12.50
2023-03-26T11:36:03.795Z,12.50
2023-03-26T11:37:03.756Z,12.44
2023-03-26T11:38:03.843Z,12.44
2023-03-26T11:39:03.832Z,12.44
2023-03-26T11:40:03.748Z,12.44
2023-03-26T11:41:03.838Z,12.38
2023-03-26T11:42:03.847Z,12.38
2023-03-26T11:43:03.750Z,12.31
2023-03-26T11:44:03.830Z,12.31
2023-03-26T11:45:03.938Z,12.25
2023-03-26T11:46:04.016Z,12.25
2023-03-26T11:47:03.911Z,12.19
2023-03-26T11:48:03.974Z,12.19
2023-03-26T11:49:03.933Z,12.19
2023-03-26T11:50:03.918Z,12.12
2023-03-26T11:51:04.004Z,12.06
2023-03-26T11:52:04.484Z,12.06
2023-03-26T11:53:03.525Z,12.00
2023-03-26T11:54:03.518Z,12.00
2023-03-26T11:55:03.519Z,11.94
2023-03-26T11:56:03.504Z,11.94
2023-03-26T11:57:04.114Z,11.94
2023-03-26T11:58:03.508Z,11.88
2023-03-26T11:59:03.592Z,11.88
2023-03-26T12:00:03.631Z,11.88
2023-03-26T12:01:03.593Z,11.88
2023-03-26T12:02:03.549Z,11.88
2023-03-26T12:03:03.944Z,11.88
2023-03-26T12:04:03.928Z,11.88
2023-03-26T12:05:03.914Z,11.88
2023-03-26T12:06:03.830Z,11.81
2023-03-26T12:07:03.919Z,11.81
2023-03-26T12:08:03.755Z,11.81
2023-03-26T12:09:03.828Z,11.81
2023-03-26T12:10:15.536Z,11.81
2023-03-26T12:11:03.912Z,11.81
2023-03-26T12:12:03.916Z,11.75
2023-03-26T12:13:03.989Z,11.81
2023-03-26T12:14:03.909Z,11.81
2023-03-26T12:15:03.910Z,11.81
2023-03-26T12:16:03.939Z,11.75
2023-03-26T12:17:03.978Z,11.75
2023-03-26T12:18:04.173Z,11.75
2023-03-26T12:19:04.147Z,11.69
2023-03-26T12:20:04.168Z,11.69
2023-03-26T12:21:04.221Z,11.69
2023-03-26T12:22:03.741Z,11.69
2023-03-26T12:23:03.838Z,11.69
2023-03-26T12:24:03.820Z,11.62
2023-03-26T12:25:03.750Z,11.62
2023-03-26T12:26:03.672Z,11.62
2023-03-26T12:27:03.821Z,11.56
2023-03-26T12:28:03.927Z,11.56
2023-03-26T12:29:03.830Z,11.56
2023-03-26T12:30:03.836Z,11.50
2023-03-26T12:31:03.928Z,11.50
2023-03-26T12:32:03.862Z,11.44
2023-03-26T12:33:03.931Z,11.44
2023-03-26T12:34:03.856Z,11.44
2023-03-26T12:35:03.918Z,11.38
2023-03-26T12:36:04.073Z,11.38
2023-03-26T12:37:03.945Z,11.38
2023-03-26T12:38:03.992Z,11.38
2023-03-26T12:39:15.903Z,11.38
2023-03-26T12:40:08.547Z,11.38
2023-03-26T12:41:04.511Z,11.38
2023-03-26T12:42:26.214Z,11.38
2023-03-26T12:44:43.269Z,11.31
2023-03-26T12:44:45.548Z,11.31
2023-03-26T12:45:04.297Z,11.31
2023-03-26T12:46:59.020Z,11.31
2023-03-26T12:47:46.337Z,11.25
2023-03-26T12:48:04.517Z,11.25
2023-03-26T12:49:03.932Z,11.25
2023-03-26T12:50:03.956Z,11.25
2023-03-26T12:51:03.902Z,11.19
2023-03-26T12:52:03.902Z,11.19
2023-03-26T12:53:03.905Z,11.19
2023-03-26T12:54:03.834Z,11.19
2023-03-26T12:55:03.940Z,11.12
2023-03-26T12:56:03.829Z,11.12
2023-03-26T12:57:11.435Z,11.12
2023-03-26T12:58:13.485Z,11.25
2023-03-26T12:59:03.840Z,11.31
2023-03-26T13:00:03.899Z,11.56
2023-03-26T13:01:03.964Z,11.75
2023-03-26T13:02:04.100Z,11.88
2023-03-26T13:03:04.274Z,12.00
2023-03-26T13:04:04.230Z,12.19
2023-03-26T13:05:06.623Z,12.12
2023-03-26T13:06:04.138Z,11.94